Time;durP1;ratioP1;P1;durP2;ratioP2;P2;SDS_P1;SDS_P2;PMS_P1;PMS_P2;Temp;Humidity;BMP_temperature;BMP_pressure;BME280_temperature;BME280_humidity;BME280_pressure;Samples;Min_cycle;Max_cycle;Signal;HPM_P1;HPM_P2
2022/01/24 00:02:03;;;;;;;19.23;10.30;;;;;;;5.90;100.00;102636.88;5046279;28;20398;-77
2022/01/24 00:04:30;;;;;;;24.38;10.68;;;;;;;5.86;100.00;102630.84;5042591;28;20056;-77
2022/01/24 00:06:57;;;;;;;24.27;10.60;;;;;;;5.92;100.00;102633.44;5046662;28;20091;-76
2022/01/24 00:09:25;;;;;;;20.80;10.20;;;;;;;5.97;100.00;102633.41;5067422;28;20132;-77
2022/01/24 00:27:57;;;;;;;23.50;11.70;;;;;;;5.81;100.00;102630.88;5063252;28;20102;-78
2022/01/24 00:30:24;;;;;;;28.23;12.15;;;;;;;5.86;100.00;102633.44;5062858;28;20128;-80
2022/01/24 00:32:52;;;;;;;24.70;12.00;;;;;;;5.91;100.00;102626.44;5058860;28;20151;-77
2022/01/24 00:35:19;;;;;;;22.33;10.95;;;;;;;5.95;100.00;102630.81;5029901;28;20056;-77
2022/01/24 00:37:46;;;;;;;20.00;9.82;;;;;;;5.95;100.00;102628.19;5047632;28;20087;-78
2022/01/24 00:40:14;;;;;;;23.55;10.98;;;;;;;5.99;100.00;102629.91;5047982;28;20037;-79
2022/01/24 00:45:35;;;;;;;23.88;12.00;;;;;;;5.99;100.00;102629.00;5069202;28;20044;-76
2022/01/24 00:48:21;;;;;;;24.58;11.75;;;;;;;6.03;100.00;102629.00;5051046;28;20147;-77
2022/01/24 00:53:50;;;;;;;22.05;10.45;;;;;;;6.12;100.00;102624.56;5075033;28;20061;-79
2022/01/24 00:56:17;;;;;;;22.05;11.52;;;;;;;6.13;100.00;102621.94;5064252;28;20633;-77
2022/01/24 00:58:44;;;;;;;24.83;11.13;;;;;;;6.13;100.00;102626.31;5042984;28;20614;-76
2022/01/24 01:01:12;;;;;;;22.45;11.70;;;;;;;6.14;100.00;102630.66;5063823;28;20055;-76
2022/01/24 01:03:39;;;;;;;21.73;11.85;;;;;;;6.14;100.00;102622.81;5065461;28;20354;-80
2022/01/24 01:06:08;;;;;;;22.42;11.68;;;;;;;6.17;100.00;102625.38;5029474;28;20098;-76
2022/01/24 01:19:42;;;;;;;25.55;12.40;;;;;;;6.03;100.00;102621.16;5054697;28;20363;-77
2022/01/24 01:22:09;;;;;;;24.75;12.18;;;;;;;6.07;100.00;102627.19;5052046;28;20139;-76
2022/01/24 01:24:42;;;;;;;19.10;10.98;;;;;;;6.07;100.00;102627.19;5052156;28;20041;-76
2022/01/24 01:27:17;;;;;;;22.90;12.13;;;;;;;6.00;100.00;102625.53;5068415;28;20048;-77
2022/01/24 01:29:57;;;;;;;21.80;10.93;;;;;;;5.98;100.00;102630.75;5052790;28;20040;-77
2022/01/24 01:32:53;;;;;;;18.67;10.40;;;;;;;5.97;100.00;102620.31;5038128;28;20044;-78
2022/01/24 01:38:04;;;;;;;22.35;11.82;;;;;;;5.99;100.00;102618.53;5050712;28;20076;-80
2022/01/24 01:56:57;;;;;;;22.33;11.57;;;;;;;6.13;100.00;102621.94;5066191;28;20056;-77
2022/01/24 01:59:25;;;;;;;20.55;12.02;;;;;;;6.13;100.00;102628.91;5048447;28;20207;-77
2022/01/24 02:01:53;;;;;;;27.50;13.25;;;;;;;6.12;100.00;102632.41;5060696;28;20115;-76
2022/01/24 02:04:20;;;;;;;18.98;11.57;;;;;;;6.11;100.00;102626.31;5049519;28;20139;-78
2022/01/24 02:06:47;;;;;;;20.00;12.40;;;;;;;6.14;100.00;102628.03;5034648;28;20047;-76
2022/01/24 02:09:16;;;;;;;21.52;12.13;;;;;;;6.15;100.00;102632.38;5066125;28;20068;-75
2022/01/24 02:11:43;;;;;;;20.42;12.75;;;;;;;6.15;100.00;102627.16;5030436;28;20048;-76
2022/01/24 02:14:16;;;;;;;19.60;13.07;;;;;;;6.23;100.00;102622.72;5048759;28;20052;-76
2022/01/24 02:16:56;;;;;;;16.33;11.48;;;;;;;6.23;100.00;102622.72;5062005;28;20076;-77
2022/01/24 02:19:35;;;;;;;20.75;11.82;;;;;;;6.19;100.00;102615.78;5061969;28;20147;-75
2022/01/24 02:24:39;;;;;;;18.38;12.60;;;;;;;6.16;100.00;102610.56;5070340;28;20527;-77
2022/01/24 02:27:08;;;;;;;19.65;11.10;;;;;;;6.16;100.00;102614.06;5047889;28;20049;-76
2022/01/24 02:29:50;;;;;;;17.50;11.38;;;;;;;6.09;100.00;102609.78;5039406;28;20036;-77
2022/01/24 02:32:18;;;;;;;15.25;11.07;;;;;;;6.09;100.00;102605.41;5041711;28;20525;-76
2022/01/24 02:34:48;;;;;;;18.52;11.48;;;;;;;6.12;100.00;102614.09;5052046;28;20146;-75
2022/01/24 02:37:18;;;;;;;14.40;10.10;;;;;;;6.12;100.00;102609.72;5063649;28;22024;-75
2022/01/24 02:39:51;;;;;;;18.77;10.98;;;;;;;6.12;100.00;102606.25;5051881;28;20406;-76
2022/01/24 02:53:29;;;;;;;15.27;10.00;;;;;;;6.03;100.00;102617.66;5062621;28;20075;-77
2022/01/24 02:55:56;;;;;;;13.88;9.68;;;;;;;6.02;100.00;102608.06;5031043;28;20087;-78
2022/01/24 02:58:24;;;;;;;17.02;11.80;;;;;;;6.00;100.00;102609.84;5046976;28;20408;-79
2022/01/24 03:00:52;;;;;;;17.27;11.20;;;;;;;5.99;100.00;102602.84;5029860;28;20139;-80
2022/01/24 03:03:20;;;;;;;16.90;9.95;;;;;;;5.96;100.00;102609.00;5051619;28;20131;-76
2022/01/24 03:05:48;;;;;;;15.00;11.48;;;;;;;5.96;100.00;102605.53;5041297;28;20086;-77
2022/01/24 03:08:15;;;;;;;19.10;10.77;;;;;;;5.93;100.00;102590.72;5033797;28;20040;-78
2022/01/24 03:10:47;;;;;;;23.55;11.45;;;;;;;5.92;100.00;102593.34;5056532;28;20132;-78
2022/01/24 03:15:48;;;;;;;14.10;10.13;;;;;;;5.88;100.00;102583.75;5063228;28;20076;-76
2022/01/24 03:18:16;;;;;;;16.60;10.75;;;;;;;5.84;100.00;102583.78;5067995;28;20044;-77
2022/01/24 03:20:45;;;;;;;16.63;12.32;;;;;;;5.78;100.00;102594.28;5060013;28;20044;-78
2022/01/24 03:23:13;;;;;;;19.98;11.25;;;;;;;5.75;100.00;102591.69;5041565;28;20045;-81
2022/01/24 03:25:41;;;;;;;17.83;10.70;;;;;;;5.63;100.00;102593.53;5044964;28;20048;-75
2022/01/24 03:28:12;;;;;;;20.02;10.70;;;;;;;5.58;100.00;102588.31;5066420;28;20048;-77
2022/01/24 03:30:40;;;;;;;16.73;10.45;;;;;;;5.61;100.00;102590.06;5047709;28;20443;-77
2022/01/24 03:33:08;;;;;;;16.02;10.50;;;;;;;5.63;100.00;102590.91;5044975;28;20544;-77
2022/01/24 03:35:40;;;;;;;13.00;9.27;;;;;;;5.63;100.00;102591.81;5062179;28;20754;-78
2022/01/24 03:38:08;;;;;;;17.70;10.63;;;;;;;5.64;100.00;102595.28;5051620;28;20090;-77
2022/01/24 03:40:35;;;;;;;12.07;9.07;;;;;;;5.67;100.00;102601.31;5058938;28;20479;-78
2022/01/24 03:43:03;;;;;;;12.07;8.65;;;;;;;5.69;100.00;102612.66;5058572;28;20051;-77
2022/01/24 03:45:46;;;;;;;11.65;8.90;;;;;;;5.74;100.00;102610.00;5047882;28;20068;-80
2022/01/24 03:48:37;;;;;;;11.00;7.68;;;;;;;5.77;100.00;102610.00;5051726;28;20076;-78
2022/01/24 03:51:05;;;;;;;12.95;8.32;;;;;;;5.79;100.00;102606.47;5047290;28;20127;-78
2022/01/24 03:53:32;;;;;;;14.68;9.10;;;;;;;5.65;100.00;102613.53;5067858;28;21144;-78
2022/01/24 03:56:00;;;;;;;10.45;7.93;;;;;;;5.57;100.00;102608.38;5044645;28;20056;-77
2022/01/24 03:58:27;;;;;;;10.98;7.80;;;;;;;5.60;100.00;102615.31;5050471;28;20052;-77
2022/01/24 04:00:56;;;;;;;12.93;7.97;;;;;;;5.67;100.00;102616.13;5050411;28;20048;-76
2022/01/24 04:03:23;;;;;;;14.45;9.75;;;;;;;5.71;100.00;102610.03;5021775;28;20041;-78
2022/01/24 04:05:51;;;;;;;14.85;10.13;;;;;;;5.69;100.00;102609.19;5041886;28;20060;-81
2022/01/24 04:08:19;;;;;;;18.45;10.65;;;;;;;5.73;100.00;102611.75;5049281;28;20044;-82
2022/01/24 04:10:50;;;;;;;20.73;11.75;;;;;;;5.69;100.00;102610.03;5022488;28;20055;-79
2022/01/24 04:13:31;;;;;;;25.50;13.30;;;;;;;5.65;100.00;102604.84;5049185;28;20149;-78
2022/01/24 04:16:23;;;;;;;26.58;14.90;;;;;;;5.63;100.00;102606.59;5029132;28;20048;-75
2022/01/24 04:19:24;;;;;;;24.85;14.35;;;;;;;5.72;100.00;102610.03;5055705;28;21625;-77
2022/01/24 04:21:48;;;;;;;27.25;15.05;;;;;;;5.80;100.00;102607.34;5060837;28;20147;-77
2022/01/24 04:24:21;;;;;;;21.25;14.27;;;;;;;5.77;100.00;102604.78;5072387;28;20136;-78
2022/01/24 04:26:49;;;;;;;24.13;15.15;;;;;;;5.79;100.00;102603.00;5063060;28;20148;-77
2022/01/24 04:29:17;;;;;;;26.10;15.30;;;;;;;5.80;100.00;102600.34;5062042;28;20052;-79
2022/01/24 04:31:45;;;;;;;26.50;14.90;;;;;;;5.85;100.00;102602.94;5043310;28;20041;-76
2022/01/24 04:34:12;;;;;;;27.15;15.27;;;;;;;5.84;100.00;102598.59;5045797;28;20052;-78
2022/01/24 04:36:39;;;;;;;22.25;15.45;;;;;;;5.80;100.00;102605.59;5061247;28;20131;-77
2022/01/24 04:39:07;;;;;;;26.08;16.35;;;;;;;5.82;100.00;102608.22;5047575;28;20544;-77
2022/01/24 04:41:39;;;;;;;22.27;16.05;;;;;;;5.71;100.00;102610.88;5058826;28;20124;-78
2022/01/24 04:54:41;;;;;;;23.55;16.92;;;;;;;5.81;100.00;102615.19;5056574;28;20127;-77
2022/01/24 04:57:14;;;;;;;25.83;17.88;;;;;;;5.86;100.00;102609.94;5060393;28;20087;-78
2022/01/24 04:59:44;;;;;;;26.52;17.10;;;;;;;5.89;100.00;102627.31;5052959;28;20036;-76
2022/01/24 05:02:11;;;;;;;24.67;17.63;;;;;;;5.74;100.00;102620.47;5062730;28;20109;-77
2022/01/24 05:04:39;;;;;;;28.20;18.33;;;;;;;5.71;100.00;102623.94;5069370;28;20055;-78
2022/01/24 05:07:07;;;;;;;25.15;16.85;;;;;;;5.72;100.00;102612.66;5029213;28;20049;-78
2022/01/24 05:09:41;;;;;;;24.98;17.42;;;;;;;5.71;100.00;102623.09;5063302;28;20508;-77
2022/01/24 05:12:32;;;;;;;23.88;16.50;;;;;;;5.75;100.00;102625.66;5049289;28;20131;-77
2022/01/24 05:23:37;;;;;;;;;;;;;;;5.61;100.00;102630.13;5065381;28;20044;-78
2022/01/24 05:26:07;;;;;;;22.02;13.93;;;;;;;5.62;100.00;102631.84;5067241;28;19924;-79
2022/01/24 05:28:36;;;;;;;27.05;12.95;;;;;;;5.63;100.00;102625.78;5049134;28;20132;-81
2022/01/24 05:31:04;;;;;;;20.70;13.27;;;;;;;5.68;100.00;102637.06;5047119;28;20051;-77
2022/01/24 05:33:32;;;;;;;19.33;13.20;;;;;;;5.69;100.00;102630.09;5030423;28;20076;-78
2022/01/24 05:36:00;;;;;;;19.02;13.50;;;;;;;5.72;100.00;102633.53;5039056;28;20135;-77
2022/01/24 05:38:27;;;;;;;20.05;13.32;;;;;;;5.61;100.00;102637.97;5046335;28;20155;-77
2022/01/24 05:41:01;;;;;;;21.38;14.18;;;;;;;5.63;100.00;102633.59;5030682;28;20068;-78
2022/01/24 05:43:28;;;;;;;20.05;13.85;;;;;;;5.66;100.00;102636.19;5058261;28;20086;-80
2022/01/24 05:45:55;;;;;;;20.52;13.35;;;;;;;5.71;100.00;102637.00;5031790;28;20065;-78
2022/01/24 05:48:23;;;;;;;19.27;12.82;;;;;;;5.73;100.00;102632.66;5033442;28;20072;-79
2022/01/24 05:50:50;;;;;;;20.13;12.95;;;;;;;5.67;100.00;102642.28;5077773;28;20178;-74
2022/01/24 05:53:17;;;;;;;19.48;12.43;;;;;;;5.67;100.00;102637.91;5033281;28;20175;-78
2022/01/24 05:55:45;;;;;;;19.45;14.00;;;;;;;5.65;100.00;102637.06;5042619;28;20048;-78
2022/01/24 05:58:12;;;;;;;23.60;14.02;;;;;;;5.65;100.00;102633.59;5043100;28;20063;-77
2022/01/24 06:00:39;;;;;;;21.45;14.30;;;;;;;5.65;100.00;102634.44;5058908;28;20056;-79
2022/01/24 06:03:07;;;;;;;19.25;13.88;;;;;;;5.56;100.00;102635.38;5045682;28;20048;-78
2022/01/24 06:05:35;;;;;;;20.40;14.00;;;;;;;5.57;100.00;102634.50;5045764;28;20052;-76
2022/01/24 06:08:03;;;;;;;20.45;13.77;;;;;;;5.68;100.00;102637.06;5030013;28;20147;-78
2022/01/24 06:10:30;;;;;;;21.30;14.23;;;;;;;5.58;100.00;102638.88;5048426;28;20456;-77
2022/01/24 06:12:57;;;;;;;24.10;15.52;;;;;;;5.44;100.00;102642.41;5063724;28;20084;-78
2022/01/24 06:15:25;;;;;;;29.20;16.15;;;;;;;5.44;100.00;102640.66;5062065;28;20083;-77
2022/01/24 06:17:52;;;;;;;28.55;15.98;;;;;;;5.50;100.00;102648.47;5051467;28;20059;-76
2022/01/24 06:20:19;;;;;;;28.25;16.90;;;;;;;5.49;100.00;102646.75;5067628;28;20115;-77
2022/01/24 06:22:47;;;;;;;22.88;15.60;;;;;;;5.55;100.00;102645.84;5051526;28;20068;-77
2022/01/24 06:25:20;;;;;;;20.08;14.90;;;;;;;5.53;100.00;102650.19;5068011;28;20048;-76
2022/01/24 06:27:48;;;;;;;26.13;16.35;;;;;;;5.51;100.00;102646.72;5063600;28;20135;-79
2022/01/24 06:30:18;;;;;;;28.48;17.38;;;;;;;5.51;100.00;102651.97;5068491;28;20052;-85
2022/01/24 06:32:50;;;;;;;25.25;16.25;;;;;;;5.41;100.00;102645.91;5052169;28;20044;-85
2022/01/24 06:35:20;;;;;;;24.10;15.90;;;;;;;5.41;100.00;102647.66;5085254;28;20055;-87
2022/01/24 06:37:50;;;;;;;26.23;15.20;;;;;;;5.38;100.00;102650.28;5053296;28;20460;-84
2022/01/24 06:40:21;;;;;;;21.75;15.35;;;;;;;5.48;100.00;102655.44;5054184;28;20113;-84
2022/01/24 06:42:58;;;;;;;19.67;14.95;;;;;;;5.46;100.00;102658.97;5054019;28;20383;-85
2022/01/24 06:45:33;;;;;;;21.10;14.68;;;;;;;5.49;100.00;102664.16;5052465;28;20040;-86
2022/01/24 06:48:30;;;;;;;20.42;14.65;;;;;;;5.51;100.00;102660.66;5052327;28;20060;-86
2022/01/24 06:50:58;;;;;;;22.52;15.25;;;;;;;5.50;100.00;102655.44;5051254;28;20048;-87
2022/01/24 06:53:30;;;;;;;20.08;14.57;;;;;;;5.49;100.00;102659.81;5069751;28;20043;-86
2022/01/24 06:56:08;;;;;;;21.60;15.32;;;;;;;5.48;100.00;102663.28;5070150;28;20486;-86
2022/01/24 06:58:43;;;;;;;18.75;13.77;;;;;;;5.56;100.00;102653.66;5038671;28;21138;-86
2022/01/24 07:01:15;;;;;;;19.65;13.10;;;;;;;5.58;100.00;102669.31;5038673;28;20045;-86
2022/01/24 07:03:46;;;;;;;18.67;13.18;;;;;;;5.50;100.00;102672.00;5069359;28;20037;-88
2022/01/24 07:06:15;;;;;;;16.83;11.65;;;;;;;5.51;100.00;102673.72;5040903;28;20076;-88
2022/01/24 07:08:45;;;;;;;18.00;12.88;;;;;;;5.52;100.00;102680.69;5042353;28;20049;-87
2022/01/24 07:11:18;;;;;;;18.60;13.55;;;;;;;5.58;100.00;102677.16;5061406;28;20352;-86
2022/01/24 07:13:50;;;;;;;20.75;12.40;;;;;;;5.57;100.00;102678.91;5075920;28;20083;-87
2022/01/24 07:16:20;;;;;;;17.65;12.93;;;;;;;5.51;100.00;102675.47;5060058;28;20052;-86
2022/01/24 07:18:58;;;;;;;19.50;12.90;;;;;;;5.53;100.00;102674.56;5054986;28;20701;-87
2022/01/24 07:21:27;;;;;;;15.38;12.57;;;;;;;5.50;100.00;102679.84;5051332;28;20283;-87
2022/01/24 07:24:01;;;;;;;19.15;12.30;;;;;;;5.49;100.00;102685.94;5063910;28;20041;-86
2022/01/24 07:26:30;;;;;;;16.38;12.50;;;;;;;5.48;100.00;102689.41;5077556;28;20398;-87
2022/01/24 07:29:00;;;;;;;14.50;10.48;;;;;;;5.51;100.00;102688.53;5069665;28;20098;-86
2022/01/24 07:31:28;;;;;;;18.30;11.77;;;;;;;5.46;100.00;102691.16;5035345;28;20125;-87
2022/01/24 07:33:56;;;;;;;18.40;11.85;;;;;;;5.39;100.00;102688.59;5052044;28;20071;-86
2022/01/24 07:36:25;;;;;;;16.55;11.27;;;;;;;5.43;100.00;102687.69;5052016;28;20122;-88
2022/01/24 07:38:53;;;;;;;17.27;11.32;;;;;;;5.42;100.00;102691.19;5053386;28;20297;-85
2022/01/24 07:41:26;;;;;;;12.73;9.75;;;;;;;5.48;100.00;102694.63;5071539;28;20441;-87
2022/01/24 07:43:55;;;;;;;17.13;11.27;;;;;;;5.48;100.00;102689.41;5053616;28;20102;-87
2022/01/24 07:46:23;;;;;;;21.60;11.43;;;;;;;5.43;100.00;102691.16;5051908;28;20036;-84
2022/01/24 07:48:54;;;;;;;15.00;10.07;;;;;;;5.50;100.00;102690.28;5052213;28;20037;-87
2022/01/24 07:51:21;;;;;;;14.70;10.50;;;;;;;5.50;100.00;102686.81;5052820;28;20435;-86
2022/01/24 07:53:49;;;;;;;16.25;10.50;;;;;;;5.55;100.00;102696.34;5047039;28;20477;-86
2022/01/24 07:56:19;;;;;;;14.38;10.35;;;;;;;5.65;100.00;102691.94;5027665;28;20060;-86
2022/01/24 07:58:48;;;;;;;13.70;9.32;;;;;;;5.62;100.00;102686.72;5080653;28;20053;-85
2022/01/24 08:01:16;;;;;;;14.43;9.05;;;;;;;5.67;100.00;102689.31;5044474;28;20072;-86
2022/01/24 08:03:45;;;;;;;12.32;9.48;;;;;;;5.58;100.00;102695.44;5051063;28;20083;-87
2022/01/24 08:06:14;;;;;;;14.20;9.27;;;;;;;5.45;100.00;102688.53;5035427;28;20121;-86
2022/01/24 08:08:42;;;;;;;16.25;9.43;;;;;;;5.45;100.00;102681.59;5052710;28;20075;-85
2022/01/24 08:11:09;;;;;;;12.60;8.70;;;;;;;5.51;100.00;102688.53;5051878;28;20439;-85
2022/01/24 08:13:37;;;;;;;12.95;9.35;;;;;;;5.67;100.00;102691.91;5075415;28;20110;-88
2022/01/24 08:16:05;;;;;;;15.30;9.48;;;;;;;5.83;100.00;102689.22;5039216;28;20120;-85
2022/01/24 08:18:33;;;;;;;17.17;8.98;;;;;;;5.84;100.00;102700.53;5053085;28;20048;-87
2022/01/24 08:21:02;;;;;;;13.63;8.68;;;;;;;5.80;100.00;102696.19;5051202;28;20094;-86
2022/01/24 08:23:33;;;;;;;14.52;9.25;;;;;;;5.87;100.00;102702.28;5033133;28;20756;-86
2022/01/24 08:26:01;;;;;;;12.52;9.20;;;;;;;5.93;100.00;102703.13;5061813;28;20057;-86
2022/01/24 08:28:30;;;;;;;12.88;8.50;;;;;;;5.97;100.00;102704.84;5072554;28;20078;-86
2022/01/24 08:30:58;;;;;;;12.02;7.82;;;;;;;5.95;100.00;102701.38;5065368;28;21541;-87
2022/01/24 08:33:26;;;;;;;12.13;8.38;;;;;;;5.94;100.00;102707.47;5065266;28;20040;-86
2022/01/24 08:35:54;;;;;;;12.85;8.48;;;;;;;5.98;100.00;102709.19;5046975;28;20048;-86
2022/01/24 08:38:23;;;;;;;12.02;7.95;;;;;;;6.07;100.00;102706.50;5063216;28;20072;-87
2022/01/24 08:40:57;;;;;;;12.57;8.30;;;;;;;6.16;100.00;102709.94;5062697;28;20398;-87
2022/01/24 08:46:10;;;;;;;11.90;8.10;;;;;;;6.04;100.00;102705.69;5078638;28;20044;-86
2022/01/24 08:48:40;;;;;;;14.10;8.57;;;;;;;6.00;100.00;102707.44;5046534;28;20623;-86
2022/01/24 08:51:14;;;;;;;12.52;8.95;;;;;;;6.00;100.00;102706.59;5064013;28;20044;-86
2022/01/24 08:54:03;;;;;;;13.75;8.45;;;;;;;6.03;100.00;102702.22;5062047;28;20108;-84
2022/01/24 08:56:33;;;;;;;17.83;8.88;;;;;;;6.19;100.00;102700.34;5060704;28;20071;-86
2022/01/24 08:59:04;;;;;;;13.30;7.82;;;;;;;6.24;100.00;102697.69;5079889;28;20106;-87
2022/01/24 09:01:33;;;;;;;15.18;8.65;;;;;;;6.34;100.00;102699.34;5075930;28;20521;-85
2022/01/24 09:04:01;;;;;;;14.27;7.15;;;;;;;6.51;100.00;102697.44;5042859;28;20064;-87
2022/01/24 09:06:30;;;;;;;11.50;7.28;;;;;;;6.64;100.00;102705.19;5070722;28;20494;-87
2022/01/24 09:09:03;;;;;;;9.20;6.10;;;;;;;6.74;100.00;102704.22;5038748;28;20048;-87
2022/01/24 09:11:34;;;;;;;12.23;7.25;;;;;;;6.69;100.00;102703.41;5052886;28;20126;-88
2022/01/24 09:14:04;;;;;;;9.10;6.65;;;;;;;6.74;100.00;102697.25;5026704;28;20535;-81
2022/01/24 09:16:31;;;;;;;11.02;7.35;;;;;;;6.78;100.00;102696.31;5061626;28;20168;-79
2022/01/24 09:18:58;;;;;;;13.05;7.30;;;;;;;6.73;100.00;102695.50;5053029;28;20132;-78
2022/01/24 09:21:28;;;;;;;9.10;6.63;;;;;;;6.63;100.00;102701.72;5067100;28;20530;-78
2022/01/24 09:23:55;;;;;;;12.77;6.65;;;;;;;6.70;100.00;102703.38;5067606;28;20076;-77
2022/01/24 09:26:22;;;;;;;9.27;6.63;;;;;;;6.69;100.00;102690.31;5069077;28;20140;-78
2022/01/24 09:28:50;;;;;;;14.23;6.97;;;;;;;6.73;100.00;102690.28;5031739;28;20577;-77
2022/01/24 09:31:18;;;;;;;11.30;7.28;;;;;;;6.74;100.00;102686.75;5036022;28;20509;-77
2022/01/24 09:33:46;;;;;;;11.20;7.38;;;;;;;6.76;100.00;102690.25;5067232;28;20041;-78
2022/01/24 09:36:14;;;;;;;12.05;7.40;;;;;;;6.54;100.00;102686.97;5073921;28;20046;-79
2022/01/24 09:38:42;;;;;;;10.73;6.93;;;;;;;6.55;100.00;102682.59;5030473;28;20127;-78
2022/01/24 09:41:10;;;;;;;14.05;6.70;;;;;;;6.72;100.00;102692.91;5050321;28;20068;-77
2022/01/24 09:43:37;;;;;;;10.88;7.65;;;;;;;6.78;100.00;102683.22;5048878;28;20041;-78
2022/01/24 09:46:05;;;;;;;11.27;6.80;;;;;;;6.58;100.00;102687.81;5047241;28;20037;-78
2022/01/24 09:48:33;;;;;;;11.25;7.30;;;;;;;6.66;100.00;102680.72;5046631;28;20051;-80
2022/01/24 09:51:02;;;;;;;9.23;6.45;;;;;;;6.83;100.00;102677.94;5031990;28;20052;-78
2022/01/24 09:53:30;;;;;;;12.13;6.85;;;;;;;6.99;100.00;102676.06;5081487;28;20051;-79
2022/01/24 09:56:02;;;;;;;12.82;8.50;;;;;;;7.13;100.00;102683.75;5021383;28;20139;-79
2022/01/24 09:58:34;;;;;;;16.30;8.65;;;;;;;7.28;100.00;102684.41;5063821;28;20234;-79
2022/01/24 10:01:04;;;;;;;12.02;7.97;;;;;;;7.28;99.89;102681.78;5048197;28;20118;-79
2022/01/24 10:03:32;;;;;;;16.02;8.52;;;;;;;7.44;99.58;102686.88;5066937;28;20091;-78
2022/01/24 10:06:10;;;;;;;13.68;8.82;;;;;;;7.44;98.73;102692.09;5033563;28;20047;-80
2022/01/24 10:08:37;;;;;;;16.15;9.18;;;;;;;7.40;98.76;102679.94;5063807;28;20079;-79
2022/01/24 10:11:07;;;;;;;14.45;8.90;;;;;;;7.26;99.56;102682.72;5052399;28;20187;-78
2022/01/24 10:16:43;;;;;;;11.07;7.50;;;;;;;6.98;99.74;102671.66;5053520;28;20036;-77
2022/01/24 10:19:22;;;;;;;10.52;7.55;;;;;;;6.81;99.95;102677.97;5037264;28;20135;-78
2022/01/24 10:22:01;;;;;;;14.13;7.07;;;;;;;6.65;100.00;102686.00;5060524;28;20061;-78
2022/01/24 10:24:38;;;;;;;11.85;7.32;;;;;;;6.53;100.00;102668.69;5039874;28;20047;-79
2022/01/24 10:27:13;;;;;;;13.15;6.88;;;;;;;6.34;100.00;102678.41;5058305;28;20541;-77
2022/01/24 10:29:58;;;;;;;10.67;6.83;;;;;;;6.15;100.00;102674.22;5064748;28;20048;-78
2022/01/24 10:32:41;;;;;;;12.23;6.78;;;;;;;6.15;100.00;102676.84;5041283;28;20045;-78
2022/01/24 10:35:43;;;;;;;14.18;7.50;;;;;;;6.08;100.00;102666.44;5043945;28;20059;-78
2022/01/24 10:38:24;;;;;;;11.25;7.22;;;;;;;5.96;100.00;102665.66;5037175;28;20041;-78
2022/01/24 10:41:06;;;;;;;11.35;7.10;;;;;;;6.02;100.00;102669.06;5066872;28;20175;-79
2022/01/24 10:43:35;;;;;;;11.38;7.65;;;;;;;6.13;100.00;102666.41;5051190;28;20051;-77
2022/01/24 10:46:04;;;;;;;14.55;8.10;;;;;;;6.05;100.00;102661.22;5068254;28;20046;-77
2022/01/24 10:48:34;;;;;;;13.55;8.65;;;;;;;5.98;100.00;102658.66;5089072;28;20051;-77
2022/01/24 10:51:17;;;;;;;15.68;9.32;;;;;;;5.90;100.00;102648.25;5038572;28;20622;-76
2022/01/24 10:53:47;;;;;;;13.27;9.48;;;;;;;6.03;100.00;102655.16;5056872;28;20053;-78
2022/01/24 10:56:35;;;;;;;16.52;9.95;;;;;;;5.98;100.00;102656.91;5050540;28;20550;-78
2022/01/24 10:59:06;;;;;;;15.02;10.48;;;;;;;5.88;100.00;102647.38;5045818;28;20063;-78
2022/01/24 11:01:33;;;;;;;17.15;10.48;;;;;;;6.00;100.00;102652.53;5057210;28;20045;-77
2022/01/24 11:04:06;;;;;;;12.90;9.50;;;;;;;6.16;100.00;102653.28;5047318;28;20044;-77
2022/01/24 11:06:46;;;;;;;12.07;8.95;;;;;;;6.46;100.00;102643.44;5035194;28;20508;-79
2022/01/24 11:09:22;;;;;;;14.18;8.60;;;;;;;6.95;100.00;102635.94;5045464;28;20048;-77
2022/01/24 11:11:55;;;;;;;12.20;8.95;;;;;;;6.98;98.34;102638.53;5047537;28;20058;-78
2022/01/24 11:14:25;;;;;;;14.27;9.57;;;;;;;6.90;99.10;102642.13;5038360;28;20484;-81
2022/01/24 11:16:54;;;;;;;14.07;9.15;;;;;;;6.77;99.26;102633.53;5068570;28;20044;-79
2022/01/24 11:19:28;;;;;;;13.02;8.93;;;;;;;6.62;98.95;102631.06;5077764;28;20182;-80
2022/01/24 11:21:57;;;;;;;13.10;8.38;;;;;;;6.46;99.46;102630.34;5053727;28;20079;-78
2022/01/24 11:24:39;;;;;;;12.65;8.48;;;;;;;6.38;99.19;102632.16;5065409;28;20052;-77
2022/01/24 11:27:27;;;;;;;12.52;8.52;;;;;;;6.23;100.00;102634.06;5053049;28;20514;-77
2022/01/24 11:29:59;;;;;;;11.13;8.35;;;;;;;6.14;99.78;102630.66;5050116;28;20044;-78
2022/01/24 11:32:28;;;;;;;14.95;7.70;;;;;;;6.03;99.71;102630.72;5048990;28;20148;-77
2022/01/24 11:34:56;;;;;;;7.72;5.25;;;;;;;5.88;98.58;102622.97;5063028;28;20063;-78
2022/01/24 11:37:43;;;;;;;7.00;4.72;;;;;;;5.75;98.77;102617.81;5063632;28;20577;-78
2022/01/24 11:40:14;;;;;;;13.52;6.22;;;;;;;5.73;99.26;102618.72;5052243;28;20120;-79
2022/01/24 11:42:47;;;;;;;7.68;4.38;;;;;;;5.74;100.00;102625.69;5047194;28;20075;-80
2022/01/24 11:45:56;;;;;;;8.95;6.15;;;;;;;5.82;100.00;102621.28;5037899;28;20706;-78
2022/01/24 11:48:25;;;;;;;9.45;6.18;;;;;;;5.79;100.00;102621.28;5062330;28;20050;-79
2022/01/24 11:51:12;;;;;;;8.38;6.15;;;;;;;5.81;100.00;102611.72;5060003;28;20668;-79
2022/01/24 11:53:43;;;;;;;10.10;6.18;;;;;;;5.76;100.00;102618.69;5049447;28;21155;-78
2022/01/24 11:56:21;;;;;;;12.15;5.93;;;;;;;5.68;100.00;102617.91;5018023;28;20045;-78
2022/01/24 11:58:49;;;;;;;11.63;6.20;;;;;;;5.70;100.00;102610.91;5050002;28;20045;-80
2022/01/24 12:01:35;;;;;;;11.32;6.20;;;;;;;5.67;100.00;102623.97;5043709;28;20054;-80
2022/01/24 12:04:03;;;;;;;12.63;6.97;;;;;;;5.65;100.00;102625.75;5042362;28;20143;-77
2022/01/24 12:07:10;;;;;;;9.02;5.00;;;;;;;5.68;100.00;102620.50;5062991;28;20120;-78
2022/01/24 12:09:38;;;;;;;12.73;6.95;;;;;;;5.74;100.00;102615.22;5068618;28;20037;-77
2022/01/24 12:12:47;;;;;;;9.30;4.95;;;;;;;5.64;100.00;102621.41;5058467;28;20055;-77
2022/01/24 12:15:39;;;;;;;6.28;4.60;;;;;;;5.46;100.00;102615.41;5070950;28;20095;-78
2022/01/24 12:18:26;;;;;;;8.65;4.80;;;;;;;5.48;100.00;102610.16;5044757;28;20056;-77
2022/01/24 12:21:08;;;;;;;9.73;4.65;;;;;;;5.51;100.00;102610.16;5068575;28;20542;-78
2022/01/24 12:23:57;;;;;;;8.48;4.70;;;;;;;5.51;100.00;102597.97;5058956;28;20059;-77
2022/01/24 12:26:48;;;;;;;11.98;5.95;;;;;;;5.54;100.00;102605.78;5062051;28;20064;-77
2022/01/24 12:29:21;;;;;;;13.82;5.15;;;;;;;5.53;100.00;102598.81;5047790;28;20048;-77
2022/01/24 12:31:54;;;;;;;11.35;5.45;;;;;;;5.50;100.00;102603.22;5035754;28;20064;-76
2022/01/24 12:34:22;;;;;;;12.02;5.55;;;;;;;5.51;100.00;102603.19;5046526;28;20053;-78
2022/01/24 12:36:59;;;;;;;9.02;5.18;;;;;;;5.58;100.00;102602.28;5061736;28;20139;-77
2022/01/24 12:39:32;;;;;;;6.85;4.90;;;;;;;5.53;100.00;102598.81;5041432;28;20051;-78
2022/01/24 12:42:02;;;;;;;8.50;4.93;;;;;;;5.48;100.00;102597.97;5057384;28;20112;-79
2022/01/24 12:47:14;;;;;;;6.05;4.65;;;;;;;5.46;100.00;102599.75;5045774;28;20110;-79
2022/01/24 12:49:46;;;;;;;8.13;4.28;;;;;;;5.41;100.00;102601.53;5061533;28;20111;-78
2022/01/24 12:52:21;;;;;;;10.43;5.40;;;;;;;5.32;100.00;102602.44;5039379;28;20123;-78
2022/01/24 12:54:58;;;;;;;10.40;5.80;;;;;;;5.31;100.00;102587.66;5054881;28;20669;-77
2022/01/24 12:57:37;;;;;;;8.50;5.10;;;;;;;5.34;100.00;102594.56;5044936;28;20399;-80
2022/01/24 13:00:17;;;;;;;8.73;5.47;;;;;;;5.35;100.00;102591.09;5060239;28;20124;-78
2022/01/24 13:02:44;;;;;;;10.05;5.45;;;;;;;5.34;100.00;102590.22;5063597;28;20483;-80
2022/01/24 13:05:16;;;;;;;11.10;6.35;;;;;;;5.30;100.00;102588.50;5058651;28;20186;-80
2022/01/24 13:07:54;;;;;;;11.88;7.35;;;;;;;5.28;100.00;102586.78;5044561;28;20151;-78
2022/01/24 13:10:30;;;;;;;15.10;8.07;;;;;;;5.29;100.00;102588.53;5061458;28;20135;-77
2022/01/24 13:13:06;;;;;;;11.82;7.75;;;;;;;5.16;100.00;102585.09;5060516;28;20060;-77